createdAt,value
2018-06-09T00:00:14.366Z,16.30
2018-06-09T00:02:49.642Z,15.40
2018-06-09T00:05:25.492Z,16.03
2018-06-09T00:08:01.241Z,16.17
2018-06-09T00:10:36.686Z,17.57
2018-06-09T00:13:12.641Z,16.93
2018-06-09T00:15:47.875Z,16.17
2018-06-09T00:18:23.910Z,15.90
2018-06-09T00:20:59.594Z,16.43
2018-06-09T00:23:35.629Z,15.93
2018-06-09T00:26:11.641Z,14.90
2018-06-09T00:28:47.229Z,15.90
2018-06-09T00:31:23.351Z,14.80
2018-06-09T00:34:00.263Z,13.97
2018-06-09T00:36:35.889Z,14.97
2018-06-09T00:39:12.047Z,14.97
2018-06-09T00:41:47.630Z,15.73
2018-06-09T00:44:23.074Z,15.10
2018-06-09T00:46:58.806Z,15.40
2018-06-09T00:49:34.269Z,15.00
2018-06-09T00:52:09.890Z,16.40
2018-06-09T00:54:45.149Z,15.97
2018-06-09T00:57:21.202Z,15.77
2018-06-09T00:59:56.456Z,16.33
2018-06-09T01:02:31.788Z,18.10
2018-06-09T01:05:07.956Z,18.67
2018-06-09T01:07:44.191Z,20.97
2018-06-09T01:10:18.927Z,20.63
2018-06-09T01:12:54.827Z,17.60
2018-06-09T01:15:30.223Z,17.70
2018-06-09T01:18:05.526Z,16.67
2018-06-09T01:20:41.739Z,17.20
2018-06-09T01:23:17.675Z,17.37
2018-06-09T01:25:52.808Z,18.77
2018-06-09T01:28:28.127Z,19.30
2018-06-09T01:31:04.521Z,19.93
2018-06-09T01:33:39.546Z,21.00
2018-06-09T01:38:40.491Z,21.37
2018-06-09T01:41:15.893Z,20.67
2018-06-09T01:43:56.605Z,18.47
2018-06-09T01:46:31.760Z,18.73
2018-06-09T01:49:06.974Z,18.97
2018-06-09T01:51:42.007Z,19.87
2018-06-09T01:54:18.065Z,20.60
2018-06-09T01:56:53.507Z,19.60
2018-06-09T01:59:29.028Z,18.50
2018-06-09T02:02:04.674Z,18.53
2018-06-09T02:04:40.452Z,17.67
2018-06-09T02:07:16.075Z,18.57
2018-06-09T02:09:51.709Z,19.13
2018-06-09T02:12:28.222Z,18.10
2018-06-09T02:15:04.490Z,18.60
2018-06-09T02:17:39.436Z,18.67
2018-06-09T02:20:15.585Z,18.23
2018-06-09T02:22:51.213Z,18.97
2018-06-09T02:25:26.932Z,20.03
2018-06-09T02:28:02.558Z,19.60
2018-06-09T02:30:37.858Z,18.57
2018-06-09T02:33:13.066Z,18.73
2018-06-09T02:35:48.131Z,18.57
2018-06-09T02:38:24.371Z,18.07
2018-06-09T02:40:59.407Z,17.23
2018-06-09T02:43:35.683Z,16.87
2018-06-09T02:46:10.072Z,15.57
2018-06-09T02:48:46.875Z,16.43
2018-06-09T02:51:22.685Z,16.07
2018-06-09T02:53:57.920Z,15.60
2018-06-09T02:56:35.205Z,15.50
2018-06-09T02:59:10.494Z,15.50
2018-06-09T03:01:45.742Z,14.97
2018-06-09T03:04:21.570Z,14.20
2018-06-09T03:06:57.941Z,12.80
2018-06-09T03:09:34.010Z,13.20
2018-06-09T03:12:10.269Z,13.30
2018-06-09T03:14:45.809Z,13.70
2018-06-09T03:17:22.521Z,13.93
2018-06-09T03:19:57.116Z,13.60
2018-06-09T03:22:31.338Z,12.60
2018-06-09T03:25:07.064Z,13.30
2018-06-09T03:27:42.313Z,12.63
2018-06-09T03:30:18.309Z,13.43
2018-06-09T03:32:53.503Z,13.00
2018-06-09T03:35:28.936Z,12.67
2018-06-09T03:38:04.600Z,12.43
2018-06-09T03:40:42.087Z,13.13
2018-06-09T03:43:17.168Z,12.00
2018-06-09T03:45:53.678Z,11.97
2018-06-09T03:48:29.319Z,11.63
2018-06-09T03:51:05.800Z,10.37
2018-06-09T03:53:41.519Z,11.40
2018-06-09T03:56:16.386Z,12.23
2018-06-09T03:58:52.333Z,12.03
2018-06-09T04:01:27.665Z,13.37
2018-06-09T04:04:02.978Z,12.47
2018-06-09T04:06:38.242Z,9.70
2018-06-09T04:09:13.993Z,10.70
2018-06-09T04:11:49.843Z,10.23
2018-06-09T04:14:25.583Z,10.17
2018-06-09T04:17:01.562Z,9.93
2018-06-09T04:19:36.780Z,10.67
2018-06-09T04:22:12.864Z,9.83
2018-06-09T04:24:48.622Z,10.10
2018-06-09T04:27:24.138Z,10.03
2018-06-09T04:29:59.177Z,9.90
2018-06-09T04:32:34.615Z,10.07
2018-06-09T04:35:12.988Z,10.00
2018-06-09T04:37:50.225Z,9.57
2018-06-09T04:40:25.980Z,9.63
2018-06-09T04:43:00.896Z,9.53
2018-06-09T04:45:36.855Z,9.00
2018-06-09T04:48:13.630Z,9.53
2018-06-09T04:50:49.039Z,9.80
2018-06-09T04:53:24.326Z,10.27
2018-06-09T04:55:59.862Z,9.33
2018-06-09T04:58:35.811Z,9.43
2018-06-09T05:01:11.639Z,9.17
2018-06-09T05:03:47.004Z,8.07
2018-06-09T05:06:23.994Z,8.83
2018-06-09T05:09:01.069Z,7.77
2018-06-09T05:11:37.329Z,9.50
2018-06-09T05:14:18.103Z,8.47
2018-06-09T05:16:54.873Z,8.87
2018-06-09T05:19:31.257Z,8.57
2018-06-09T05:22:08.748Z,7.70
2018-06-09T05:24:45.215Z,8.27
2018-06-09T05:27:25.027Z,8.70
2018-06-09T05:30:01.610Z,8.43
2018-06-09T05:32:36.943Z,9.40
2018-06-09T05:35:13.910Z,9.57
2018-06-09T05:37:51.509Z,9.30
2018-06-09T05:40:26.855Z,8.50
2018-06-09T05:43:04.862Z,8.60
2018-06-09T05:45:40.598Z,8.40
2018-06-09T05:48:16.053Z,8.73
2018-06-09T05:50:52.625Z,8.57
2018-06-09T05:53:29.486Z,8.50
2018-06-09T05:56:05.340Z,8.10
2018-06-09T05:58:41.302Z,8.70
2018-06-09T06:01:16.751Z,8.63
2018-06-09T06:03:52.815Z,8.03
2018-06-09T06:06:27.934Z,9.07
2018-06-09T06:09:03.578Z,8.30
2018-06-09T06:11:38.999Z,8.43
2018-06-09T06:14:14.882Z,7.83
2018-06-09T06:16:52.271Z,9.03
2018-06-09T06:19:28.228Z,8.33
2018-06-09T06:22:04.991Z,8.60
2018-06-09T06:24:40.250Z,8.40
2018-06-09T06:27:16.422Z,9.50
2018-06-09T06:29:53.639Z,10.20
2018-06-09T06:32:29.746Z,9.70
2018-06-09T06:35:06.199Z,10.00
2018-06-09T06:37:40.646Z,10.70
2018-06-09T06:40:18.123Z,9.93
2018-06-09T06:42:55.186Z,8.93
2018-06-09T06:45:31.007Z,10.20
2018-06-09T06:48:07.381Z,10.43
2018-06-09T06:50:43.553Z,10.53
2018-06-09T06:53:18.371Z,10.43
2018-06-09T06:55:53.928Z,12.23
2018-06-09T06:58:29.379Z,12.47
2018-06-09T07:01:05.878Z,12.67
2018-06-09T07:03:41.862Z,12.37
2018-06-09T07:06:17.442Z,13.47
2018-06-09T07:08:52.712Z,13.60
2018-06-09T07:11:27.200Z,14.50
2018-06-09T07:14:01.915Z,15.63
2018-06-09T07:16:37.262Z,16.50
2018-06-09T07:19:12.853Z,15.17
2018-06-09T07:21:48.317Z,15.83
2018-06-09T07:24:23.400Z,19.00
2018-06-09T07:26:58.349Z,16.67
2018-06-09T07:29:33.930Z,19.67
2018-06-09T07:32:09.141Z,20.07
2018-06-09T07:34:44.361Z,20.70
2018-06-09T07:37:19.450Z,18.90
2018-06-09T07:39:54.599Z,20.27
2018-06-09T07:42:29.850Z,18.73
2018-06-09T07:45:05.555Z,19.07
2018-06-09T07:47:40.650Z,20.00
2018-06-09T07:50:16.058Z,18.93
2018-06-09T07:52:50.905Z,18.77
2018-06-09T07:55:26.064Z,19.23
2018-06-09T07:58:01.966Z,19.50
2018-06-09T08:00:36.563Z,19.07
2018-06-09T08:03:14.544Z,18.90
2018-06-09T08:05:50.087Z,17.13
2018-06-09T08:08:26.047Z,18.27
2018-06-09T08:11:01.695Z,19.70
2018-06-09T08:13:37.030Z,18.73
2018-06-09T08:16:12.697Z,18.67
2018-06-09T08:18:46.916Z,19.20
2018-06-09T08:21:22.347Z,18.27
2018-06-09T08:23:57.694Z,18.33
2018-06-09T08:26:32.908Z,17.70
2018-06-09T08:29:08.668Z,17.00
2018-06-09T08:31:43.983Z,15.43
2018-06-09T08:34:18.863Z,17.30
2018-06-09T08:36:54.739Z,19.10
2018-06-09T08:39:30.040Z,17.63
2018-06-09T08:42:04.895Z,18.00
2018-06-09T08:44:39.485Z,16.20
2018-06-09T08:47:14.818Z,17.80
2018-06-09T08:49:50.642Z,17.47
2018-06-09T08:52:26.102Z,17.87
2018-06-09T08:55:01.253Z,17.67
2018-06-09T08:57:36.860Z,16.73
2018-06-09T09:00:12.009Z,17.87
2018-06-09T09:02:46.638Z,17.90
2018-06-09T09:05:21.983Z,17.37
2018-06-09T09:07:57.249Z,18.00
2018-06-09T09:10:32.082Z,18.87
2018-06-09T09:13:07.872Z,17.73
2018-06-09T09:15:43.956Z,17.93
2018-06-09T09:18:19.734Z,19.60
2018-06-09T09:20:54.966Z,17.87
2018-06-09T09:23:30.615Z,19.17
2018-06-09T09:26:06.062Z,18.40
2018-06-09T09:28:41.442Z,20.13
2018-06-09T09:31:17.542Z,19.50
2018-06-09T09:33:53.261Z,18.13
2018-06-09T09:36:28.524Z,19.33
2018-06-09T09:39:03.958Z,20.20
2018-06-09T09:41:39.611Z,18.07
2018-06-09T09:44:14.764Z,18.70
2018-06-09T09:46:50.303Z,17.40
2018-06-09T09:49:26.776Z,18.03
2018-06-09T09:52:01.970Z,19.63
2018-06-09T09:54:37.741Z,19.00
2018-06-09T09:57:12.587Z,18.33
2018-06-09T09:59:48.601Z,20.17
2018-06-09T10:02:24.294Z,19.73
2018-06-09T10:04:59.613Z,18.33
2018-06-09T10:07:35.273Z,17.83
2018-06-09T10:10:11.265Z,18.37
2018-06-09T10:12:46.385Z,17.90
2018-06-09T10:15:23.269Z,20.07
2018-06-09T10:17:58.391Z,19.53
2018-06-09T10:20:33.313Z,21.37
2018-06-09T10:23:08.597Z,19.73
2018-06-09T10:25:46.816Z,18.60
2018-06-09T10:28:22.965Z,17.77
2018-06-09T10:31:00.023Z,18.90
2018-06-09T10:33:35.002Z,18.03
2018-06-09T10:36:11.122Z,19.57
2018-06-09T10:38:46.950Z,20.10
2018-06-09T10:41:23.062Z,20.60
2018-06-09T10:43:58.810Z,18.13
2018-06-09T10:46:35.845Z,18.73
2018-06-09T10:49:12.505Z,18.30
2018-06-09T10:51:48.464Z,16.90
2018-06-09T10:54:25.641Z,17.97
2018-06-09T10:57:01.070Z,16.93
2018-06-09T10:59:36.415Z,16.70
2018-06-09T11:02:12.243Z,17.40
2018-06-09T11:04:47.624Z,17.97
2018-06-09T11:07:23.823Z,18.23
2018-06-09T11:09:58.893Z,16.40
2018-06-09T11:12:34.258Z,17.17
2018-06-09T11:15:10.056Z,16.47
2018-06-09T11:17:46.679Z,15.80
2018-06-09T11:20:22.069Z,17.93
2018-06-09T11:22:56.825Z,19.10
2018-06-09T11:25:34.663Z,19.03
2018-06-09T11:28:11.454Z,19.37
2018-06-09T11:30:47.895Z,18.77
2018-06-09T11:33:23.743Z,19.73
2018-06-09T11:36:03.016Z,18.77
2018-06-09T11:38:39.796Z,17.67
2018-06-09T11:41:15.910Z,16.97
2018-06-09T11:43:53.578Z,17.33
2018-06-09T11:46:31.485Z,17.33
2018-06-09T11:49:07.237Z,17.30
2018-06-09T11:51:42.544Z,15.63
2018-06-09T11:54:17.514Z,17.83
2018-06-09T11:56:53.101Z,17.43
2018-06-09T11:59:35.859Z,15.93
2018-06-09T12:02:13.904Z,16.73
2018-06-09T12:04:57.301Z,16.23
2018-06-09T12:07:33.004Z,17.57
2018-06-09T12:10:09.036Z,16.10
2018-06-09T12:12:48.508Z,15.70
2018-06-09T12:15:24.710Z,15.70
2018-06-09T12:18:01.493Z,16.47
2018-06-09T12:20:38.788Z,14.40
2018-06-09T12:23:14.299Z,14.83
2018-06-09T12:25:51.094Z,14.80
2018-06-09T12:28:27.337Z,15.73
2018-06-09T12:31:03.502Z,15.43
2018-06-09T12:33:38.669Z,14.57
2018-06-09T12:36:13.970Z,15.40
2018-06-09T12:38:50.248Z,15.63
2018-06-09T12:41:26.591Z,16.57
2018-06-09T12:44:03.472Z,16.57
2018-06-09T12:46:38.835Z,15.77
2018-06-09T12:49:14.700Z,17.20
2018-06-09T12:51:49.653Z,16.20
2018-06-09T12:54:25.640Z,15.73
2018-06-09T12:57:00.794Z,15.70
2018-06-09T12:59:35.751Z,15.10
2018-06-09T13:02:10.571Z,15.43
2018-06-09T13:04:46.407Z,15.33
2018-06-09T13:07:22.624Z,14.53
2018-06-09T13:09:57.607Z,34.73
2018-06-09T13:12:33.253Z,16.77
2018-06-09T13:15:08.811Z,14.77
2018-06-09T13:17:43.532Z,15.03
2018-06-09T13:20:26.658Z,16.00
2018-06-09T13:23:01.259Z,15.40
2018-06-09T13:25:36.627Z,14.60
2018-06-09T13:28:11.556Z,13.90
2018-06-09T13:30:46.980Z,13.83
2018-06-09T13:33:22.810Z,14.87
2018-06-09T13:35:57.828Z,13.37
2018-06-09T13:38:33.106Z,14.27
2018-06-09T13:41:07.415Z,13.60
2018-06-09T13:43:42.644Z,13.53
2018-06-09T13:46:17.581Z,14.40
2018-06-09T13:48:52.438Z,12.83
2018-06-09T13:51:27.682Z,13.30
2018-06-09T13:54:04.333Z,13.37
2018-06-09T13:56:38.891Z,13.03
2018-06-09T13:59:14.546Z,13.50
2018-06-09T14:01:49.640Z,14.13
2018-06-09T14:04:24.942Z,14.07
2018-06-09T14:07:00.304Z,12.90
2018-06-09T14:09:35.172Z,13.27
2018-06-09T14:12:11.407Z,12.73
2018-06-09T14:14:46.968Z,13.50
2018-06-09T14:17:23.109Z,13.80
2018-06-09T14:19:57.692Z,13.40
2018-06-09T14:22:32.563Z,13.50
2018-06-09T14:25:08.046Z,12.27
2018-06-09T14:27:43.139Z,13.53
2018-06-09T14:30:17.905Z,14.10
2018-06-09T14:32:53.021Z,14.50
2018-06-09T14:35:29.179Z,14.90
2018-06-09T14:38:05.515Z,14.67
2018-06-09T14:40:43.626Z,13.53
2018-06-09T14:43:19.607Z,13.73
2018-06-09T14:45:58.210Z,13.23
2018-06-09T14:48:35.277Z,12.60
2018-06-09T14:51:13.100Z,11.17
2018-06-09T14:53:48.815Z,10.17
2018-06-09T14:56:25.509Z,9.63
2018-06-09T14:59:01.067Z,9.27
2018-06-09T15:01:36.202Z,9.07
2018-06-09T15:04:11.833Z,8.97
2018-06-09T15:06:47.064Z,9.23
2018-06-09T15:09:25.691Z,8.97
2018-06-09T15:12:02.107Z,9.10
2018-06-09T15:14:36.880Z,9.60
2018-06-09T15:17:12.208Z,9.60
2018-06-09T15:19:52.521Z,9.53
2018-06-09T15:22:29.587Z,8.93
2018-06-09T15:25:06.029Z,7.40
2018-06-09T15:27:41.467Z,8.43
2018-06-09T15:30:22.243Z,8.73
2018-06-09T15:32:56.565Z,8.40
2018-06-09T15:35:35.487Z,8.00
2018-06-09T15:38:11.660Z,8.27
2018-06-09T15:40:46.877Z,7.73
2018-06-09T15:43:24.480Z,8.67
2018-06-09T15:46:01.148Z,8.53
2018-06-09T15:48:37.511Z,9.03
2018-06-09T15:51:13.898Z,7.63
2018-06-09T15:53:49.118Z,7.70
2018-06-09T15:56:23.750Z,7.87
2018-06-09T15:58:59.846Z,8.10
2018-06-09T16:01:35.245Z,8.40
2018-06-09T16:04:11.011Z,7.67
2018-06-09T16:06:47.029Z,8.97
2018-06-09T16:09:21.906Z,7.93
2018-06-09T16:11:56.268Z,8.13
2018-06-09T16:14:31.784Z,7.97
2018-06-09T16:17:07.460Z,7.83
2018-06-09T16:19:42.621Z,8.23
2018-06-09T16:22:17.842Z,9.07
2018-06-09T16:24:53.285Z,8.90
2018-06-09T16:27:27.961Z,8.83
2018-06-09T16:30:02.841Z,7.80
2018-06-09T16:32:38.098Z,8.27
2018-06-09T16:35:13.740Z,8.77
2018-06-09T16:37:49.257Z,8.33
2018-06-09T16:40:24.567Z,10.63
2018-06-09T16:42:59.724Z,9.17
2018-06-09T16:45:35.532Z,9.13
2018-06-09T16:48:11.163Z,8.33
2018-06-09T16:50:46.406Z,8.87
2018-06-09T16:53:21.956Z,9.27
2018-06-09T16:55:57.272Z,9.47
2018-06-09T16:58:33.132Z,9.30
2018-06-09T17:01:08.792Z,9.17
2018-06-09T17:03:44.394Z,9.10
2018-06-09T17:06:19.722Z,9.17
2018-06-09T17:08:55.557Z,8.63
2018-06-09T17:11:31.568Z,8.33
2018-06-09T17:14:07.116Z,9.30
2018-06-09T17:16:42.450Z,9.43
2018-06-09T17:19:18.094Z,9.27
2018-06-09T17:21:53.130Z,9.53
2018-06-09T17:24:28.455Z,9.70
2018-06-09T17:27:04.484Z,9.50
2018-06-09T17:29:40.437Z,10.37
2018-06-09T17:32:16.383Z,10.43
2018-06-09T17:34:51.650Z,22.80
2018-06-09T17:37:27.961Z,9.77
2018-06-09T17:40:04.292Z,10.67
2018-06-09T17:42:39.523Z,9.83
2018-06-09T17:45:14.584Z,10.70
2018-06-09T17:47:52.049Z,10.73
2018-06-09T17:50:27.814Z,9.80
2018-06-09T17:53:04.557Z,9.60
2018-06-09T17:55:39.729Z,9.60
2018-06-09T17:58:14.443Z,9.50
2018-06-09T18:00:51.545Z,8.87
2018-06-09T18:03:27.520Z,9.20
2018-06-09T18:06:03.608Z,9.50
2018-06-09T18:08:40.684Z,9.70
2018-06-09T18:11:16.381Z,9.57
2018-06-09T18:13:52.641Z,9.90
2018-06-09T18:16:28.101Z,10.37
2018-06-09T18:19:04.248Z,9.53
2018-06-09T18:21:40.396Z,10.13
2018-06-09T18:24:15.707Z,10.83
2018-06-09T18:26:51.298Z,12.03
2018-06-09T18:29:27.967Z,12.97
2018-06-09T18:32:04.512Z,12.23
2018-06-09T18:34:40.453Z,12.37
2018-06-09T18:37:16.822Z,11.70
2018-06-09T18:39:52.216Z,11.67
2018-06-09T18:42:27.945Z,11.67
2018-06-09T18:45:03.177Z,11.57
2018-06-09T18:47:38.895Z,14.10
2018-06-09T18:50:14.805Z,14.60
2018-06-09T18:52:49.867Z,14.73
2018-06-09T18:55:25.650Z,12.00
2018-06-09T18:58:02.351Z,11.53
2018-06-09T19:00:39.333Z,11.87
2018-06-09T19:03:15.071Z,12.13
2018-06-09T19:05:50.514Z,11.67
2018-06-09T19:08:26.253Z,11.97
2018-06-09T19:11:01.694Z,12.00
2018-06-09T19:13:36.938Z,11.70
2018-06-09T19:16:12.775Z,12.50
2018-06-09T19:18:48.669Z,13.23
2018-06-09T19:21:24.378Z,12.40
2018-06-09T19:23:59.827Z,12.23
2018-06-09T19:26:35.382Z,12.57
2018-06-09T19:29:11.162Z,12.57
2018-06-09T19:31:48.030Z,13.50
2018-06-09T19:34:23.715Z,12.60
2018-06-09T19:36:58.701Z,12.83
2018-06-09T19:39:34.296Z,13.03
2018-06-09T19:42:09.788Z,15.17
2018-06-09T19:44:45.290Z,14.63
2018-06-09T19:47:20.277Z,13.50
2018-06-09T19:49:55.091Z,14.20
2018-06-09T19:52:30.300Z,13.97
2018-06-09T19:55:05.125Z,14.07
2018-06-09T19:57:40.196Z,13.87
2018-06-09T20:00:15.783Z,13.93
2018-06-09T20:02:50.483Z,13.50
2018-06-09T20:05:25.853Z,13.23
2018-06-09T20:08:01.556Z,12.73
2018-06-09T20:10:37.210Z,14.23
2018-06-09T20:13:12.952Z,12.90
2018-06-09T20:15:48.757Z,13.07
2018-06-09T20:18:24.536Z,13.20
2018-06-09T20:21:00.412Z,13.63
2018-06-09T20:23:36.414Z,13.80
2018-06-09T20:26:11.003Z,13.43
2018-06-09T20:28:46.234Z,12.60
2018-06-09T20:31:20.682Z,13.83
2018-06-09T20:33:55.072Z,12.97
2018-06-09T20:36:29.430Z,12.97
2018-06-09T20:39:13.126Z,12.93
2018-06-09T20:41:47.909Z,13.40
2018-06-09T20:44:22.736Z,13.07
2018-06-09T20:46:57.941Z,12.60
2018-06-09T20:49:33.658Z,13.77
2018-06-09T20:52:08.777Z,13.53
2018-06-09T20:54:43.820Z,13.77
2018-06-09T20:57:18.864Z,14.73
2018-06-09T20:59:53.791Z,14.87
2018-06-09T21:02:28.802Z,15.20
2018-06-09T21:05:03.619Z,14.93
2018-06-09T21:07:39.481Z,15.70
2018-06-09T21:10:14.484Z,16.07
2018-06-09T21:12:50.468Z,16.00
2018-06-09T21:15:25.530Z,15.87
2018-06-09T21:18:00.834Z,15.97
2018-06-09T21:20:35.594Z,16.17
2018-06-09T21:23:10.831Z,16.00
2018-06-09T21:25:45.967Z,15.57
2018-06-09T21:28:28.278Z,16.07
2018-06-09T21:31:09.410Z,17.83
2018-06-09T21:34:00.943Z,15.07
2018-06-09T21:36:40.734Z,16.33
2018-06-09T21:39:21.794Z,17.13
2018-06-09T21:42:03.197Z,17.67
2018-06-09T21:44:41.875Z,16.80
2018-06-09T21:47:17.703Z,17.57
2018-06-09T21:49:52.936Z,18.37
2018-06-09T21:52:27.889Z,18.10
2018-06-09T21:55:02.845Z,17.70
2018-06-09T21:57:43.587Z,17.60
2018-06-09T22:00:18.527Z,17.83
2018-06-09T22:02:53.032Z,18.13
2018-06-09T22:05:28.078Z,18.07
2018-06-09T22:08:03.309Z,19.40
2018-06-09T22:10:37.950Z,18.73
2018-06-09T22:13:13.093Z,17.37
2018-06-09T22:15:47.726Z,18.50
2018-06-09T22:18:22.493Z,18.97
2018-06-09T22:20:57.649Z,20.63
2018-06-09T22:23:32.406Z,21.33
2018-06-09T22:26:11.516Z,20.47
2018-06-09T22:28:46.354Z,20.03
2018-06-09T22:31:21.261Z,19.47
2018-06-09T22:33:55.978Z,17.93
2018-06-09T22:36:31.309Z,17.57
2018-06-09T22:39:06.680Z,19.53
2018-06-09T22:41:41.701Z,20.17
2018-06-09T22:44:16.246Z,20.33
2018-06-09T22:46:51.200Z,20.03
2018-06-09T22:49:26.489Z,19.33
2018-06-09T22:52:01.493Z,18.80
2018-06-09T22:54:35.882Z,18.67
2018-06-09T22:57:10.706Z,18.93
2018-06-09T22:59:45.423Z,19.70
2018-06-09T23:02:20.873Z,19.67
2018-06-09T23:04:55.537Z,20.10
2018-06-09T23:07:30.335Z,19.43
2018-06-09T23:10:05.794Z,18.43
2018-06-09T23:12:41.360Z,17.63
2018-06-09T23:15:16.023Z,17.87
2018-06-09T23:17:51.061Z,18.73
2018-06-09T23:20:25.759Z,17.97
2018-06-09T23:23:00.522Z,20.33
2018-06-09T23:25:35.709Z,17.93
2018-06-09T23:28:10.872Z,18.23
2018-06-09T23:30:46.187Z,18.37
2018-06-09T23:33:21.331Z,17.13
2018-06-09T23:35:56.499Z,18.00
2018-06-09T23:38:31.945Z,18.97
2018-06-09T23:41:06.784Z,18.37
2018-06-09T23:43:41.978Z,18.93
2018-06-09T23:46:16.849Z,19.63
2018-06-09T23:48:51.960Z,18.70
2018-06-09T23:51:27.113Z,19.23
2018-06-09T23:54:01.908Z,19.57
2018-06-09T23:56:37.257Z,19.30
2018-06-09T23:59:12.275Z,19.93
